Launceston Airport

YMLT · Tasmania, 澳大利亚

METAR YMLT · Launceston Airport

13 六月 03:30 LT
22m
罗盘
风向 的 Launceston Airport 14R/32L
风: 0 kt, 0 beaufort


改变
0 ft 1.000 2.000 3.000 4.000 5.000
未检测到零云
METAR YMLT 121730Z AUTO 00000KT 9999 // NCD 00/M01 Q1019 RF00.0/000.0

METAR Launceston Airport - YMLT/LST

Launceston Airport是,澳大利亚中的中型机场。 该机场位于纬度-41,54394和经度147,21413。 该机场有3条跑道: 14R/32L, 14L/32R 和 18/36. 本场的ICAO机场代码为YMLT。 该机场的IATA代码为LST。 机场在Melbourne FIR中。

该航空气象观测是针对Launceston Airport在2024年6月13日 03:30, 当地时间进行的。

机场观察

可变方向的风很小或没有风。

可见度为10 km 或者更多。

有未检测到零云。 没有观察到天花板。

温度和风寒是0 °C。 露点为-1 °C,相对湿度为93%。 海平面上的气压为1019 hPa (QNH)。

白天

今天,太阳从07:34升起,在16:47降落。 这适用于Launceston Airport,世界夏令时可能有所不同。 当地时间与世界标准时间之间的时差为+10 小时。 夏令时目前正在进行中。

公司介绍

我们没有关于这个机场的公司信息。

体会

到Vliegles.nl去找飞行课程,跳伞和其他飞行体验。 浏览页面,了解Launceston Airport附近所有可用的活动。 你也可以使用搜索功能来寻找你所在地附近的特定飞行课程、跳伞或其他飞行体验。

跑道

Id 标题 侧风 逆风 侧风 %
14R/32L 147°-327°
14L/32R 147°-327°
18/36 195°-015°

逆风成分最大的方向会被突出显示,并用于横风计算。 这并不一定意味着这个方向在使用。

乌云

- NCD 未检测到零云

温度 & 天气

温度 0 °C
露点 -1 °C
相对湿度 93%
Kp-index 1 (0-9)

白天

日出
07:34 (3:43)
中午
12:11
日落
16:47

小工具

你想在你的网站上有一个关于Launceston Airport的当前航空天气(METAR)的小部件吗?

显示HTML代码
报告变更